sensor_id;sensor_type;location;lat;lon;timestamp;pressure;altitude;pressure_sealevel;temperature;humidity
61408;BME280;47274;43.054;25.146;2023-03-16T00:01:15;94556.16;;;5.92;65.92
61408;BME280;47274;43.054;25.146;2023-03-16T00:03:41;94557.22;;;5.89;66.11
61408;BME280;47274;43.054;25.146;2023-03-16T00:06:07;94554.78;;;5.88;65.52
61408;BME280;47274;43.054;25.146;2023-03-16T00:08:33;94546.25;;;5.89;66.38
61408;BME280;47274;43.054;25.146;2023-03-16T00:10:59;94564.09;;;5.79;66.48
61408;BME280;47274;43.054;25.146;2023-03-16T00:13:27;94574.28;;;5.79;67.17
61408;BME280;47274;43.054;25.146;2023-03-16T00:15:53;94567.88;;;5.75;67.77
61408;BME280;47274;43.054;25.146;2023-03-16T00:18:19;94566.56;;;5.71;68.37
61408;BME280;47274;43.054;25.146;2023-03-16T00:20:56;94568.03;;;5.64;69.61
61408;BME280;47274;43.054;25.146;2023-03-16T00:23:23;94580.22;;;5.60;70.31
61408;BME280;47274;43.054;25.146;2023-03-16T00:25:52;94581.97;;;5.60;71.25
61408;BME280;47274;43.054;25.146;2023-03-16T00:28:18;94589.34;;;5.63;72.18
61408;BME280;47274;43.054;25.146;2023-03-16T00:30:43;94587.88;;;5.60;72.88
61408;BME280;47274;43.054;25.146;2023-03-16T00:33:14;94581.72;;;5.53;74.15
61408;BME280;47274;43.054;25.146;2023-03-16T00:35:39;94581.47;;;5.56;74.34
61408;BME280;47274;43.054;25.146;2023-03-16T00:38:18;94574.88;;;5.54;75.27
61408;BME280;47274;43.054;25.146;2023-03-16T00:40:44;94580.94;;;5.53;75.85
61408;BME280;47274;43.054;25.146;2023-03-16T00:43:09;94583.59;;;5.61;75.77
61408;BME280;47274;43.054;25.146;2023-03-16T00:45:35;94579.06;;;5.55;76.53
61408;BME280;47274;43.054;25.146;2023-03-16T00:48:01;94578.38;;;5.53;77.34
61408;BME280;47274;43.054;25.146;2023-03-16T00:50:26;94581.75;;;5.43;78.51
61408;BME280;47274;43.054;25.146;2023-03-16T00:52:52;94578.84;;;5.38;79.07
61408;BME280;47274;43.054;25.146;2023-03-16T00:55:21;94582.06;;;5.40;79.01
61408;BME280;47274;43.054;25.146;2023-03-16T00:57:47;94580.56;;;5.38;79.27
61408;BME280;47274;43.054;25.146;2023-03-16T01:00:13;94593.16;;;5.39;79.69
61408;BME280;47274;43.054;25.146;2023-03-16T01:02:41;94591.28;;;5.41;79.84
61408;BME280;47274;43.054;25.146;2023-03-16T01:05:10;94600.50;;;5.42;79.53
61408;BME280;47274;43.054;25.146;2023-03-16T01:07:37;94603.84;;;5.43;79.62
61408;BME280;47274;43.054;25.146;2023-03-16T01:10:03;94604.00;;;5.41;79.70
61408;BME280;47274;43.054;25.146;2023-03-16T01:12:29;94600.78;;;5.30;80.98
61408;BME280;47274;43.054;25.146;2023-03-16T01:14:54;94593.31;;;5.18;82.46
61408;BME280;47274;43.054;25.146;2023-03-16T01:17:20;94592.78;;;5.15;83.22
61408;BME280;47274;43.054;25.146;2023-03-16T01:19:48;94596.13;;;5.15;83.11
61408;BME280;47274;43.054;25.146;2023-03-16T01:22:14;94598.69;;;5.15;83.39
61408;BME280;47274;43.054;25.146;2023-03-16T01:24:40;94604.97;;;5.11;84.18
61408;BME280;47274;43.054;25.146;2023-03-16T01:27:07;94595.22;;;5.16;83.72
61408;BME280;47274;43.054;25.146;2023-03-16T01:29:33;94601.09;;;5.17;83.69
61408;BME280;47274;43.054;25.146;2023-03-16T01:32:00;94596.81;;;5.17;83.92
61408;BME280;47274;43.054;25.146;2023-03-16T01:34:25;94601.63;;;5.11;84.46
61408;BME280;47274;43.054;25.146;2023-03-16T01:36:51;94604.19;;;5.11;84.67
61408;BME280;47274;43.054;25.146;2023-03-16T01:39:26;94608.84;;;5.06;84.84
61408;BME280;47274;43.054;25.146;2023-03-16T01:41:52;94613.56;;;5.01;85.23
61408;BME280;47274;43.054;25.146;2023-03-16T01:44:19;94609.16;;;4.93;85.62
61408;BME280;47274;43.054;25.146;2023-03-16T01:46:47;94609.41;;;4.90;85.89
61408;BME280;47274;43.054;25.146;2023-03-16T01:49:21;94601.63;;;4.91;85.23
61408;BME280;47274;43.054;25.146;2023-03-16T01:56:50;94603.53;;;4.89;85.39
61408;BME280;47274;43.054;25.146;2023-03-16T01:59:17;94585.88;;;4.68;85.39
61408;BME280;47274;43.054;25.146;2023-03-16T02:01:46;94618.38;;;4.84;85.50
61408;BME280;47274;43.054;25.146;2023-03-16T02:04:20;94627.72;;;4.84;85.46
61408;BME280;47274;43.054;25.146;2023-03-16T02:06:52;94634.97;;;4.79;84.90
61408;BME280;47274;43.054;25.146;2023-03-16T02:09:19;94634.69;;;4.82;85.16
61408;BME280;47274;43.054;25.146;2023-03-16T02:11:46;94649.81;;;4.83;84.55
61408;BME280;47274;43.054;25.146;2023-03-16T02:14:13;94641.94;;;4.86;84.20
61408;BME280;47274;43.054;25.146;2023-03-16T02:16:40;94643.25;;;4.81;84.30
61408;BME280;47274;43.054;25.146;2023-03-16T02:19:08;94649.53;;;4.77;84.09
61408;BME280;47274;43.054;25.146;2023-03-16T02:24:08;94657.66;;;4.61;84.08
61408;BME280;47274;43.054;25.146;2023-03-16T02:29:05;94658.75;;;4.58;84.20
61408;BME280;47274;43.054;25.146;2023-03-16T02:31:33;94656.06;;;4.60;83.64
61408;BME280;47274;43.054;25.146;2023-03-16T02:33:59;94660.19;;;4.51;84.07
61408;BME280;47274;43.054;25.146;2023-03-16T02:36:25;94655.38;;;4.48;84.76
61408;BME280;47274;43.054;25.146;2023-03-16T02:38:52;94654.44;;;4.49;84.64
61408;BME280;47274;43.054;25.146;2023-03-16T02:41:19;94656.84;;;4.50;84.59
61408;BME280;47274;43.054;25.146;2023-03-16T02:43:51;94661.78;;;4.42;84.48
61408;BME280;47274;43.054;25.146;2023-03-16T02:46:24;94658.56;;;4.40;84.28
61408;BME280;47274;43.054;25.146;2023-03-16T02:48:56;94655.97;;;4.31;85.00
61408;BME280;47274;43.054;25.146;2023-03-16T02:51:23;94662.41;;;4.25;85.35
61408;BME280;47274;43.054;25.146;2023-03-16T02:53:49;94663.06;;;4.27;84.75
61408;BME280;47274;43.054;25.146;2023-03-16T02:56:16;94672.56;;;4.25;84.60
61408;BME280;47274;43.054;25.146;2023-03-16T02:58:41;94679.38;;;4.24;84.28
61408;BME280;47274;43.054;25.146;2023-03-16T03:01:12;94681.78;;;4.26;84.13
61408;BME280;47274;43.054;25.146;2023-03-16T03:03:38;94670.66;;;4.17;84.77
61408;BME280;47274;43.054;25.146;2023-03-16T03:06:04;94666.22;;;4.10;85.10
61408;BME280;47274;43.054;25.146;2023-03-16T03:08:34;94665.81;;;4.04;85.54
61408;BME280;47274;43.054;25.146;2023-03-16T03:11:00;94669.28;;;4.03;85.76
61408;BME280;47274;43.054;25.146;2023-03-16T03:13:26;94678.34;;;4.06;85.50
61408;BME280;47274;43.054;25.146;2023-03-16T03:15:51;94682.63;;;4.06;85.46
61408;BME280;47274;43.054;25.146;2023-03-16T03:18:20;94694.28;;;4.08;85.58
61408;BME280;47274;43.054;25.146;2023-03-16T03:20:45;94701.44;;;4.03;85.45
61408;BME280;47274;43.054;25.146;2023-03-16T03:23:11;94707.81;;;3.88;85.80
61408;BME280;47274;43.054;25.146;2023-03-16T03:25:40;94714.72;;;3.86;85.78
61408;BME280;47274;43.054;25.146;2023-03-16T03:28:06;94709.09;;;3.82;85.92
61408;BME280;47274;43.054;25.146;2023-03-16T03:30:32;94713.81;;;3.87;86.30
61408;BME280;47274;43.054;25.146;2023-03-16T03:32:58;94714.22;;;3.92;85.58
61408;BME280;47274;43.054;25.146;2023-03-16T03:35:24;94704.72;;;3.84;86.68
61408;BME280;47274;43.054;25.146;2023-03-16T03:37:49;94707.06;;;3.76;87.04
61408;BME280;47274;43.054;25.146;2023-03-16T03:40:19;94704.50;;;3.76;87.03
61408;BME280;47274;43.054;25.146;2023-03-16T03:42:48;94709.16;;;3.71;87.96
61408;BME280;47274;43.054;25.146;2023-03-16T03:45:16;94713.31;;;3.72;88.11
61408;BME280;47274;43.054;25.146;2023-03-16T03:47:43;94722.59;;;3.62;88.35
61408;BME280;47274;43.054;25.146;2023-03-16T03:50:13;94724.81;;;3.55;89.03
61408;BME280;47274;43.054;25.146;2023-03-16T03:52:49;94725.91;;;3.41;89.62
61408;BME280;47274;43.054;25.146;2023-03-16T03:55:14;94717.50;;;3.41;89.35
61408;BME280;47274;43.054;25.146;2023-03-16T03:57:40;94714.41;;;3.37;89.78
61408;BME280;47274;43.054;25.146;2023-03-16T04:00:06;94728.50;;;3.30;90.55
61408;BME280;47274;43.054;25.146;2023-03-16T04:02:38;94726.81;;;3.19;90.99
61408;BME280;47274;43.054;25.146;2023-03-16T04:05:07;94732.47;;;3.23;90.57
61408;BME280;47274;43.054;25.146;2023-03-16T04:07:33;94735.09;;;3.21;90.52
61408;BME280;47274;43.054;25.146;2023-03-16T04:10:03;94743.41;;;3.23;90.62
61408;BME280;47274;43.054;25.146;2023-03-16T04:12:36;94744.13;;;3.14;90.67
61408;BME280;47274;43.054;25.146;2023-03-16T04:15:03;94756.00;;;3.14;91.38
61408;BME280;47274;43.054;25.146;2023-03-16T04:17:35;94757.97;;;3.10;91.21
61408;BME280;47274;43.054;25.146;2023-03-16T04:20:05;94766.38;;;3.11;91.18
61408;BME280;47274;43.054;25.146;2023-03-16T04:22:37;94765.47;;;3.12;91.66
61408;BME280;47274;43.054;25.146;2023-03-16T04:25:02;94771.00;;;3.05;91.76
61408;BME280;47274;43.054;25.146;2023-03-16T04:27:31;94774.22;;;3.07;91.75
61408;BME280;47274;43.054;25.146;2023-03-16T04:30:04;94780.66;;;3.12;91.69
61408;BME280;47274;43.054;25.146;2023-03-16T04:32:31;94787.34;;;3.13;90.76
61408;BME280;47274;43.054;25.146;2023-03-16T04:34:57;94784.47;;;3.06;91.76
61408;BME280;47274;43.054;25.146;2023-03-16T04:37:33;94795.09;;;3.00;90.71
61408;BME280;47274;43.054;25.146;2023-03-16T04:39:59;94789.91;;;2.90;91.78
61408;BME280;47274;43.054;25.146;2023-03-16T04:42:25;94800.88;;;2.91;92.04
61408;BME280;47274;43.054;25.146;2023-03-16T04:44:51;94809.72;;;2.96;92.02
61408;BME280;47274;43.054;25.146;2023-03-16T04:47:16;94807.75;;;3.00;91.75
61408;BME280;47274;43.054;25.146;2023-03-16T04:49:43;94806.94;;;2.99;90.59
61408;BME280;47274;43.054;25.146;2023-03-16T04:52:08;94811.00;;;2.91;90.94
61408;BME280;47274;43.054;25.146;2023-03-16T04:54:34;94816.88;;;2.91;91.94
61408;BME280;47274;43.054;25.146;2023-03-16T04:57:00;94820.88;;;2.94;91.39
61408;BME280;47274;43.054;25.146;2023-03-16T04:59:35;94827.34;;;2.98;91.49
61408;BME280;47274;43.054;25.146;2023-03-16T05:02:18;94825.38;;;2.90;90.14
61408;BME280;47274;43.054;25.146;2023-03-16T05:04:44;94824.16;;;2.84;91.35
61408;BME280;47274;43.054;25.146;2023-03-16T05:07:10;94836.78;;;2.96;91.28
61408;BME280;47274;43.054;25.146;2023-03-16T05:09:39;94825.84;;;2.95;90.50
61408;BME280;47274;43.054;25.146;2023-03-16T05:12:05;94837.16;;;2.91;90.99
61408;BME280;47274;43.054;25.146;2023-03-16T05:14:39;94839.00;;;2.78;90.33
61408;BME280;47274;43.054;25.146;2023-03-16T05:17:16;94854.53;;;2.73;90.15
61408;BME280;47274;43.054;25.146;2023-03-16T05:19:44;94853.06;;;2.71;90.14
61408;BME280;47274;43.054;25.146;2023-03-16T05:22:10;94857.19;;;2.72;90.83
61408;BME280;47274;43.054;25.146;2023-03-16T05:24:40;94857.66;;;2.66;90.67
61408;BME280;47274;43.054;25.146;2023-03-16T05:27:05;94857.31;;;2.70;90.45
61408;BME280;47274;43.054;25.146;2023-03-16T05:29:31;94862.97;;;2.74;90.49
61408;BME280;47274;43.054;25.146;2023-03-16T05:31:57;94868.47;;;2.68;90.17
61408;BME280;47274;43.054;25.146;2023-03-16T05:34:27;94875.59;;;2.63;90.20
61408;BME280;47274;43.054;25.146;2023-03-16T05:36:53;94885.28;;;2.57;90.16
61408;BME280;47274;43.054;25.146;2023-03-16T05:39:20;94889.47;;;2.23;91.24
61408;BME280;47274;43.054;25.146;2023-03-16T05:41:47;94879.13;;;2.26;91.57
61408;BME280;47274;43.054;25.146;2023-03-16T05:44:16;94888.78;;;2.32;91.61
61408;BME280;47274;43.054;25.146;2023-03-16T05:47:06;94890.50;;;2.21;91.31
61408;BME280;47274;43.054;25.146;2023-03-16T05:49:35;94895.69;;;2.19;91.84
61408;BME280;47274;43.054;25.146;2023-03-16T05:52:06;94894.25;;;2.04;92.03
61408;BME280;47274;43.054;25.146;2023-03-16T05:54:33;94902.75;;;2.03;91.76
61408;BME280;47274;43.054;25.146;2023-03-16T05:56:59;94905.38;;;2.01;92.83
61408;BME280;47274;43.054;25.146;2023-03-16T05:59:27;94898.25;;;1.95;92.62
61408;BME280;47274;43.054;25.146;2023-03-16T06:01:55;94907.28;;;1.86;93.76
61408;BME280;47274;43.054;25.146;2023-03-16T06:04:21;94909.94;;;1.85;93.78
61408;BME280;47274;43.054;25.146;2023-03-16T06:06:47;94904.16;;;1.83;93.29
61408;BME280;47274;43.054;25.146;2023-03-16T06:09:18;94904.38;;;1.80;93.64
61408;BME280;47274;43.054;25.146;2023-03-16T06:11:44;94902.06;;;1.77;93.78
61408;BME280;47274;43.054;25.146;2023-03-16T06:14:12;94913.19;;;1.74;94.24
61408;BME280;47274;43.054;25.146;2023-03-16T06:16:38;94904.53;;;1.65;94.62
61408;BME280;47274;43.054;25.146;2023-03-16T06:19:04;94911.22;;;1.66;94.66
61408;BME280;47274;43.054;25.146;2023-03-16T06:21:31;94911.63;;;1.60;94.62
61408;BME280;47274;43.054;25.146;2023-03-16T06:24:03;94913.06;;;1.64;94.97
61408;BME280;47274;43.054;25.146;2023-03-16T06:26:33;94922.34;;;1.64;95.16
61408;BME280;47274;43.054;25.146;2023-03-16T06:28:59;94918.53;;;1.58;94.87
61408;BME280;47274;43.054;25.146;2023-03-16T06:31:28;94917.44;;;1.50;95.76
61408;BME280;47274;43.054;25.146;2023-03-16T06:33:54;94925.81;;;1.50;95.81
61408;BME280;47274;43.054;25.146;2023-03-16T06:36:22;94927.34;;;1.53;95.69
61408;BME280;47274;43.054;25.146;2023-03-16T06:38:52;94928.16;;;1.53;96.21
61408;BME280;47274;43.054;25.146;2023-03-16T06:41:24;94931.72;;;1.51;96.05
61408;BME280;47274;43.054;25.146;2023-03-16T06:43:50;94943.03;;;1.45;97.04
61408;BME280;47274;43.054;25.146;2023-03-16T06:46:16;94943.56;;;1.37;97.17
61408;BME280;47274;43.054;25.146;2023-03-16T06:48:42;94941.13;;;1.36;97.60
61408;BME280;47274;43.054;25.146;2023-03-16T06:51:09;94944.47;;;1.36;97.90
61408;BME280;47274;43.054;25.146;2023-03-16T06:53:35;94950.72;;;1.43;97.87
61408;BME280;47274;43.054;25.146;2023-03-16T06:56:04;94946.50;;;1.31;98.75
61408;BME280;47274;43.054;25.146;2023-03-16T06:58:34;94953.31;;;1.18;98.99
61408;BME280;47274;43.054;25.146;2023-03-16T07:01:01;94952.78;;;1.26;99.36
61408;BME280;47274;43.054;25.146;2023-03-16T07:03:28;94967.06;;;1.27;98.98
61408;BME280;47274;43.054;25.146;2023-03-16T07:05:58;94975.44;;;1.27;99.19
61408;BME280;47274;43.054;25.146;2023-03-16T07:08:24;94987.47;;;1.24;99.25
61408;BME280;47274;43.054;25.146;2023-03-16T07:10:50;94991.31;;;1.16;99.09
61408;BME280;47274;43.054;25.146;2023-03-16T07:13:16;94997.78;;;1.21;98.51
61408;BME280;47274;43.054;25.146;2023-03-16T07:15:44;94986.69;;;1.23;98.39
61408;BME280;47274;43.054;25.146;2023-03-16T07:18:10;94999.00;;;1.28;98.25
61408;BME280;47274;43.054;25.146;2023-03-16T07:20:39;95003.34;;;1.26;98.21
61408;BME280;47274;43.054;25.146;2023-03-16T07:23:06;95008.31;;;1.27;98.11
61408;BME280;47274;43.054;25.146;2023-03-16T07:25:33;95012.56;;;1.27;98.62
61408;BME280;47274;43.054;25.146;2023-03-16T07:27:59;95011.50;;;1.29;98.36
61408;BME280;47274;43.054;25.146;2023-03-16T07:30:31;95017.09;;;1.34;97.74
61408;BME280;47274;43.054;25.146;2023-03-16T07:32:57;95014.16;;;1.28;98.40
61408;BME280;47274;43.054;25.146;2023-03-16T07:35:26;95016.38;;;1.32;98.54
61408;BME280;47274;43.054;25.146;2023-03-16T07:37:53;95020.81;;;1.29;98.30
61408;BME280;47274;43.054;25.146;2023-03-16T07:40:19;95016.28;;;1.34;98.80
61408;BME280;47274;43.054;25.146;2023-03-16T07:42:45;95024.97;;;1.30;99.00
61408;BME280;47274;43.054;25.146;2023-03-16T07:45:23;95022.25;;;1.20;99.01
61408;BME280;47274;43.054;25.146;2023-03-16T07:47:49;95034.97;;;1.31;98.91
61408;BME280;47274;43.054;25.146;2023-03-16T07:50:35;95034.69;;;1.23;99.28
61408;BME280;47274;43.054;25.146;2023-03-16T07:53:01;95042.56;;;1.18;99.63
61408;BME280;47274;43.054;25.146;2023-03-16T07:55:30;95057.53;;;1.22;99.13
61408;BME280;47274;43.054;25.146;2023-03-16T07:57:58;95051.84;;;1.05;100.00
61408;BME280;47274;43.054;25.146;2023-03-16T08:00:29;95057.13;;;1.15;100.00
61408;BME280;47274;43.054;25.146;2023-03-16T08:02:55;95063.69;;;1.17;100.00
61408;BME280;47274;43.054;25.146;2023-03-16T08:05:22;95063.38;;;1.22;100.00
61408;BME280;47274;43.054;25.146;2023-03-16T08:07:52;95066.91;;;1.19;100.00
61408;BME280;47274;43.054;25.146;2023-03-16T08:10:22;95064.38;;;1.19;100.00
61408;BME280;47274;43.054;25.146;2023-03-16T08:12:54;95072.09;;;1.18;100.00
61408;BME280;47274;43.054;25.146;2023-03-16T08:15:20;95079.06;;;1.27;100.00
61408;BME280;47274;43.054;25.146;2023-03-16T08:17:47;95074.91;;;1.26;100.00
61408;BME280;47274;43.054;25.146;2023-03-16T08:20:18;95082.19;;;1.18;100.00
61408;BME280;47274;43.054;25.146;2023-03-16T08:22:47;95079.28;;;1.24;100.00
61408;BME280;47274;43.054;25.146;2023-03-16T08:25:16;95077.84;;;1.20;100.00
61408;BME280;47274;43.054;25.146;2023-03-16T08:27:52;95076.81;;;1.23;100.00
61408;BME280;47274;43.054;25.146;2023-03-16T08:30:23;95081.59;;;1.14;100.00
61408;BME280;47274;43.054;25.146;2023-03-16T08:33:06;95087.13;;;1.19;100.00
61408;BME280;47274;43.054;25.146;2023-03-16T08:35:31;95086.75;;;1.26;100.00
61408;BME280;47274;43.054;25.146;2023-03-16T08:37:58;95091.31;;;1.21;100.00
61408;BME280;47274;43.054;25.146;2023-03-16T08:40:24;95094.72;;;1.19;100.00
61408;BME280;47274;43.054;25.146;2023-03-16T08:42:53;95104.63;;;1.10;100.00
61408;BME280;47274;43.054;25.146;2023-03-16T08:45:20;95104.03;;;1.06;100.00
61408;BME280;47274;43.054;25.146;2023-03-16T08:47:48;95109.78;;;1.08;100.00
61408;BME280;47274;43.054;25.146;2023-03-16T08:50:17;95113.03;;;1.10;100.00
61408;BME280;47274;43.054;25.146;2023-03-16T08:52:43;95113.31;;;1.18;100.00
61408;BME280;47274;43.054;25.146;2023-03-16T08:55:09;95118.69;;;1.14;100.00
61408;BME280;47274;43.054;25.146;2023-03-16T08:57:35;95117.16;;;1.11;100.00
61408;BME280;47274;43.054;25.146;2023-03-16T09:00:03;95116.66;;;1.06;100.00
61408;BME280;47274;43.054;25.146;2023-03-16T09:02:37;95109.78;;;1.08;100.00
61408;BME280;47274;43.054;25.146;2023-03-16T09:05:03;95112.63;;;1.16;100.00
61408;BME280;47274;43.054;25.146;2023-03-16T09:07:29;95116.78;;;1.17;100.00
61408;BME280;47274;43.054;25.146;2023-03-16T09:09:54;95112.31;;;1.21;100.00
61408;BME280;47274;43.054;25.146;2023-03-16T09:12:20;95117.41;;;1.34;100.00
61408;BME280;47274;43.054;25.146;2023-03-16T09:14:46;95127.50;;;1.34;100.00
61408;BME280;47274;43.054;25.146;2023-03-16T09:17:13;95123.47;;;1.31;98.81
61408;BME280;47274;43.054;25.146;2023-03-16T09:19:39;95126.00;;;1.44;98.60
61408;BME280;47274;43.054;25.146;2023-03-16T09:22:04;95128.31;;;1.47;98.44
61408;BME280;47274;43.054;25.146;2023-03-16T09:24:31;95124.28;;;1.45;97.22
61408;BME280;47274;43.054;25.146;2023-03-16T09:26:56;95136.59;;;1.49;97.18
61408;BME280;47274;43.054;25.146;2023-03-16T09:29:22;95134.25;;;1.33;97.31
61408;BME280;47274;43.054;25.146;2023-03-16T09:31:48;95128.31;;;1.34;96.47
61408;BME280;47274;43.054;25.146;2023-03-16T09:34:14;95140.03;;;1.35;97.23
61408;BME280;47274;43.054;25.146;2023-03-16T09:36:40;95112.00;;;1.26;96.93
61408;BME280;47274;43.054;25.146;2023-03-16T09:39:06;95139.00;;;1.25;97.17
61408;BME280;47274;43.054;25.146;2023-03-16T09:46:43;95142.59;;;1.48;97.69
61408;BME280;47274;43.054;25.146;2023-03-16T09:49:14;95148.66;;;1.58;97.05
61408;BME280;47274;43.054;25.146;2023-03-16T09:51:43;95147.31;;;1.53;96.68
61408;BME280;47274;43.054;25.146;2023-03-16T09:56:41;95155.63;;;1.55;97.13
61408;BME280;47274;43.054;25.146;2023-03-16T09:59:12;95152.31;;;1.54;96.50
61408;BME280;47274;43.054;25.146;2023-03-16T10:04:21;95160.06;;;1.64;96.09
61408;BME280;47274;43.054;25.146;2023-03-16T10:11:56;95162.50;;;1.65;94.79
61408;BME280;47274;43.054;25.146;2023-03-16T10:14:24;95161.31;;;1.58;94.35
61408;BME280;47274;43.054;25.146;2023-03-16T10:16:56;95163.50;;;1.63;94.64
61408;BME280;47274;43.054;25.146;2023-03-16T10:22:12;95162.91;;;1.59;95.63
61408;BME280;47274;43.054;25.146;2023-03-16T10:24:41;95163.44;;;1.64;94.80
61408;BME280;47274;43.054;25.146;2023-03-16T10:27:13;95167.78;;;1.62;94.43
61408;BME280;47274;43.054;25.146;2023-03-16T10:29:41;95170.50;;;1.59;94.70
61408;BME280;47274;43.054;25.146;2023-03-16T10:32:11;95175.25;;;1.64;94.62
61408;BME280;47274;43.054;25.146;2023-03-16T10:34:37;95173.34;;;1.68;94.35
61408;BME280;47274;43.054;25.146;2023-03-16T10:37:03;95177.16;;;1.60;93.04
61408;BME280;47274;43.054;25.146;2023-03-16T10:39:34;95176.56;;;1.70;94.12
61408;BME280;47274;43.054;25.146;2023-03-16T10:42:00;95178.69;;;1.76;93.14
61408;BME280;47274;43.054;25.146;2023-03-16T10:44:27;95183.84;;;1.74;92.26
61408;BME280;47274;43.054;25.146;2023-03-16T10:47:01;95175.56;;;1.72;92.70
61408;BME280;47274;43.054;25.146;2023-03-16T10:49:28;95183.88;;;1.61;92.81
61408;BME280;47274;43.054;25.146;2023-03-16T10:52:03;95178.91;;;1.73;93.90
61408;BME280;47274;43.054;25.146;2023-03-16T10:54:34;95182.94;;;1.62;92.92
61408;BME280;47274;43.054;25.146;2023-03-16T10:57:12;95181.94;;;1.65;93.22
61408;BME280;47274;43.054;25.146;2023-03-16T10:59:38;95182.03;;;1.63;94.16
61408;BME280;47274;43.054;25.146;2023-03-16T11:02:38;95178.41;;;1.68;93.86
61408;BME280;47274;43.054;25.146;2023-03-16T11:04:56;95173.34;;;1.68;93.65
61408;BME280;47274;43.054;25.146;2023-03-16T11:07:22;95176.38;;;1.73;93.76
61408;BME280;47274;43.054;25.146;2023-03-16T11:09:52;95177.69;;;1.78;93.72
61408;BME280;47274;43.054;25.146;2023-03-16T11:14:44;95178.78;;;1.87;93.80
61408;BME280;47274;43.054;25.146;2023-03-16T11:17:11;95179.91;;;1.83;93.12
61408;BME280;47274;43.054;25.146;2023-03-16T11:22:09;95176.50;;;1.71;93.38
61408;BME280;47274;43.054;25.146;2023-03-16T11:24:41;95175.56;;;1.72;93.66
61408;BME280;47274;43.054;25.146;2023-03-16T11:27:21;95175.25;;;1.77;93.31
61408;BME280;47274;43.054;25.146;2023-03-16T11:32:15;95169.97;;;1.67;93.70
61408;BME280;47274;43.054;25.146;2023-03-16T11:34:43;95167.25;;;1.70;93.99
61408;BME280;47274;43.054;25.146;2023-03-16T11:52:52;95191.75;;;1.82;93.37
61408;BME280;47274;43.054;25.146;2023-03-16T11:58:04;95193.69;;;1.79;93.42
61408;BME280;47274;43.054;25.146;2023-03-16T12:00:39;95197.75;;;1.81;93.10
61408;BME280;47274;43.054;25.146;2023-03-16T12:03:24;95203.59;;;1.82;92.90
61408;BME280;47274;43.054;25.146;2023-03-16T12:05:56;95197.75;;;1.81;92.66
61408;BME280;47274;43.054;25.146;2023-03-16T12:08:28;95196.91;;;1.81;92.79
61408;BME280;47274;43.054;25.146;2023-03-16T12:11:02;95186.28;;;1.63;92.46
61408;BME280;47274;43.054;25.146;2023-03-16T12:13:36;95204.00;;;1.76;93.22
61408;BME280;47274;43.054;25.146;2023-03-16T12:16:05;95202.16;;;1.78;92.47
61408;BME280;47274;43.054;25.146;2023-03-16T12:21:16;95203.81;;;1.79;93.18
61408;BME280;47274;43.054;25.146;2023-03-16T12:23:56;95204.81;;;1.76;92.35
61408;BME280;47274;43.054;25.146;2023-03-16T12:26:24;95213.59;;;1.71;92.83
61408;BME280;47274;43.054;25.146;2023-03-16T12:28:54;95221.00;;;1.74;93.60
61408;BME280;47274;43.054;25.146;2023-03-16T12:41:40;95226.66;;;1.77;93.67
61408;BME280;47274;43.054;25.146;2023-03-16T12:44:14;95227.78;;;1.73;93.19
61408;BME280;47274;43.054;25.146;2023-03-16T12:46:56;95234.25;;;1.77;94.33
61408;BME280;47274;43.054;25.146;2023-03-16T12:49:24;95230.72;;;1.80;94.05
61408;BME280;47274;43.054;25.146;2023-03-16T12:52:06;95234.66;;;1.84;94.72
61408;BME280;47274;43.054;25.146;2023-03-16T12:54:32;95238.50;;;1.77;94.67
61408;BME280;47274;43.054;25.146;2023-03-16T12:57:05;95232.03;;;1.73;94.47
61408;BME280;47274;43.054;25.146;2023-03-16T12:59:35;95235.56;;;1.70;95.32
61408;BME280;47274;43.054;25.146;2023-03-16T13:02:02;95230.41;;;1.72;94.93
61408;BME280;47274;43.054;25.146;2023-03-16T13:04:29;95229.88;;;1.66;94.76
61408;BME280;47274;43.054;25.146;2023-03-16T13:09:41;95241.66;;;1.68;95.76
61408;BME280;47274;43.054;25.146;2023-03-16T13:12:19;95242.88;;;1.75;96.13
61408;BME280;47274;43.054;25.146;2023-03-16T13:14:45;95244.78;;;1.71;95.54
61408;BME280;47274;43.054;25.146;2023-03-16T13:19:40;95245.88;;;1.67;95.50
61408;BME280;47274;43.054;25.146;2023-03-16T13:27:26;95255.91;;;1.69;95.92
61408;BME280;47274;43.054;25.146;2023-03-16T13:29:56;95257.44;;;1.71;96.12
61408;BME280;47274;43.054;25.146;2023-03-16T13:32:23;95265.41;;;1.65;95.56
61408;BME280;47274;43.054;25.146;2023-03-16T13:34:50;95267.72;;;1.55;95.75
61408;BME280;47274;43.054;25.146;2023-03-16T13:37:17;95268.50;;;1.56;96.28
61408;BME280;47274;43.054;25.146;2023-03-16T13:39:51;95266.78;;;1.56;97.18
61408;BME280;47274;43.054;25.146;2023-03-16T13:42:18;95240.16;;;1.38;96.50
61408;BME280;47274;43.054;25.146;2023-03-16T13:44:45;95270.28;;;1.68;97.07
61408;BME280;47274;43.054;25.146;2023-03-16T13:47:14;95267.94;;;1.65;96.97
61408;BME280;47274;43.054;25.146;2023-03-16T13:49:47;95271.06;;;1.69;97.21
61408;BME280;47274;43.054;25.146;2023-03-16T13:52:26;95275.31;;;1.68;97.09
61408;BME280;47274;43.054;25.146;2023-03-16T13:54:52;95269.34;;;1.69;96.98
61408;BME280;47274;43.054;25.146;2023-03-16T13:57:19;95274.53;;;1.68;97.40
61408;BME280;47274;43.054;25.146;2023-03-16T13:59:46;95276.22;;;1.67;97.47
61408;BME280;47274;43.054;25.146;2023-03-16T14:02:16;95287.47;;;1.76;97.19
61408;BME280;47274;43.054;25.146;2023-03-16T14:04:45;95280.47;;;1.66;97.33
61408;BME280;47274;43.054;25.146;2023-03-16T14:07:14;95291.50;;;1.65;98.19
61408;BME280;47274;43.054;25.146;2023-03-16T14:09:43;95293.50;;;1.60;98.08
61408;BME280;47274;43.054;25.146;2023-03-16T14:12:17;95298.56;;;1.60;98.06
61408;BME280;47274;43.054;25.146;2023-03-16T14:14:49;95299.72;;;1.69;99.19
61408;BME280;47274;43.054;25.146;2023-03-16T14:17:19;95300.19;;;1.61;98.70
61408;BME280;47274;43.054;25.146;2023-03-16T14:19:56;95309.72;;;1.71;98.87
61408;BME280;47274;43.054;25.146;2023-03-16T14:22:26;95312.06;;;1.74;98.75
61408;BME280;47274;43.054;25.146;2023-03-16T14:24:54;95307.50;;;1.66;99.54